レイキャビク/ケフラヴィーク の空港の天気 - METARとTAF

ケフラヴィーク国際空港 ( BIKF / KEF ) - アイスランド ケプラヴィーク
飛行場実況気象(Metar)
観測時間01/18 09:30 GMT (01/18 09:30 UTC)
風向・風速南東 6m/s
視程10km以上
天気現象
少しの雲 雲底高度 1130m
全天の4割程度の雲 雲底高度 1490m
全天の4割程度の雲 雲底高度 3050m
気温-4℃
湿度86%
気圧985hPa
METARBIKF 180930Z 14011KT 9999 FEW037 SCT049 SCT100 M04/M06 Q0985
過去の天気等 Google飛行場航空写真 Wunderground天気予報

過去48時間のMETAR

飛行場予報(TAF)
発表時間: 1/18 07:51 GMT (1/18 07:51 UTC)
予報対象時間: 18日9時 GMT ~ 19日9時 GMT
風向・風速東南東 4m/s
視程10km以上
少しの雲 雲底高度 300m
全天の4割程度の雲 雲底高度 760m
全天の8割程度の雲 雲底高度 760m
18日9時 GMT ~ 18日12時 GMT に 確率 40% で一時的に
視程1,500m
天気現象しゅう雪
全天の8割程度の雲 雲底高度 300m
18日13時 GMT ~ 18日16時 GMT に徐々に
視程10km以上
なし
19日6時 GMT ~ 19日9時 GMT に徐々に
風向・風速北北東 6m/s
TAF BIKF 180751Z 1809/1909 12008KT 9999 FEW010 SCT025 BKN025 TXM03/1812Z TNM09/1903Z
PROB40 TEMPO 1809/1812 1500 SHSN BKN010
BECMG 1813/1816 CAVOK
BECMG 1906/1909 02012KT